Aviation Digital Data Service (ADDS)

Output produced by METARs form (1339 UTC 23 January 2019)
found at http://www.aviationweather.gov/metar/data/
 
Forecast for: KLBB (LUBBOCK , TX, US)
Text: KLBB 231120Z 2312/2412 29011KT P6SM SKC
Forecast period: 1200 UTC 23 January 2019 to 1200 UTC 24 January 2019
Forecast type: FROM: standard forecast or significant change
Winds: from the WNW (290 degrees) at 13 MPH (11 knots; 5.7 m/s)
Visibility: 6 or more miles 10+ km)
Clouds: clear skies
Weather: no significant weather forecast for this period